createdAt,value
2018-09-13T00:00:36.732Z,17.64
2018-09-13T00:03:05.371Z,17.73
2018-09-13T00:05:33.905Z,17.75
2018-09-13T00:08:02.500Z,17.71
2018-09-13T00:10:31.043Z,17.63
2018-09-13T00:12:59.627Z,17.55
2018-09-13T00:15:28.144Z,17.51
2018-09-13T00:17:56.736Z,17.43
2018-09-13T00:20:25.284Z,17.47
2018-09-13T00:22:53.864Z,17.44
2018-09-13T00:25:22.418Z,17.49
2018-09-13T00:27:50.971Z,17.42
2018-09-13T00:30:19.510Z,17.41
2018-09-13T00:32:48.100Z,17.32
2018-09-13T00:35:16.684Z,17.41
2018-09-13T00:37:45.262Z,17.43
2018-09-13T00:40:13.813Z,17.41
2018-09-13T00:42:42.424Z,17.36
2018-09-13T00:45:10.976Z,17.40
2018-09-13T00:47:43.961Z,17.20
2018-09-13T00:50:13.536Z,17.15
2018-09-13T00:52:42.120Z,17.24
2018-09-13T00:55:10.810Z,17.18
2018-09-13T00:57:39.405Z,17.06
2018-09-13T01:00:08.363Z,16.82
2018-09-13T01:02:37.407Z,16.91
2018-09-13T01:05:06.262Z,16.88
2018-09-13T01:07:34.971Z,16.73
2018-09-13T01:10:03.572Z,16.52
2018-09-13T01:12:32.188Z,16.35
2018-09-13T01:15:00.719Z,16.38
2018-09-13T01:17:29.283Z,16.48
2018-09-13T01:19:57.824Z,16.59
2018-09-13T01:22:26.405Z,16.63
2018-09-13T01:24:55.443Z,16.74
2018-09-13T01:27:25.084Z,16.74
2018-09-13T01:29:53.616Z,16.67
2018-09-13T01:32:22.278Z,16.64
2018-09-13T01:34:50.902Z,16.23
2018-09-13T01:37:19.485Z,15.81
2018-09-13T01:39:48.062Z,15.51
2018-09-13T01:42:16.679Z,15.46
2018-09-13T01:44:45.192Z,15.38
2018-09-13T01:47:13.742Z,15.42
2018-09-13T01:49:42.359Z,15.46
2018-09-13T01:52:10.953Z,15.76
2018-09-13T01:54:39.571Z,16.00
2018-09-13T01:57:08.961Z,16.02
2018-09-13T01:59:37.585Z,16.13
2018-09-13T02:02:06.180Z,16.14
2018-09-13T02:04:34.755Z,16.11
2018-09-13T02:07:03.291Z,16.11
2018-09-13T02:09:31.880Z,16.05
2018-09-13T02:12:00.431Z,16.06
2018-09-13T02:14:28.987Z,16.17
2018-09-13T02:16:57.523Z,16.18
2018-09-13T02:19:26.083Z,16.19
2018-09-13T02:21:54.617Z,16.21
2018-09-13T02:24:23.200Z,16.34
2018-09-13T02:26:51.715Z,16.33
2018-09-13T02:29:20.276Z,16.31
2018-09-13T02:31:48.799Z,16.38
2018-09-13T02:34:17.350Z,16.44
2018-09-13T02:36:45.880Z,16.45
2018-09-13T02:39:14.455Z,16.41
2018-09-13T02:41:43.100Z,16.37
2018-09-13T02:44:12.045Z,16.40
2018-09-13T02:46:40.650Z,16.44
2018-09-13T02:49:09.333Z,16.57
2018-09-13T02:51:37.891Z,16.43
2018-09-13T02:54:06.476Z,16.35
2018-09-13T02:56:35.044Z,16.31
2018-09-13T02:59:03.669Z,16.38
2018-09-13T03:01:32.217Z,16.39
2018-09-13T03:04:00.812Z,16.47
2018-09-13T03:06:29.335Z,16.60
2018-09-13T03:08:57.892Z,16.67
2018-09-13T03:11:26.425Z,16.64
2018-09-13T03:13:54.999Z,16.05
2018-09-13T03:16:23.558Z,15.85
2018-09-13T03:18:52.124Z,15.74
2018-09-13T03:21:20.655Z,15.69
2018-09-13T03:23:49.233Z,15.67
2018-09-13T03:26:17.949Z,15.72
2018-09-13T03:28:46.602Z,15.74
2018-09-13T03:31:15.116Z,15.83
2018-09-13T03:33:43.736Z,15.93
2018-09-13T03:36:12.297Z,16.03
2018-09-13T03:38:40.920Z,16.10
2018-09-13T03:41:09.524Z,16.23
2018-09-13T03:43:38.533Z,16.46
2018-09-13T03:46:07.081Z,16.58
2018-09-13T03:48:35.693Z,16.75
2018-09-13T03:51:04.433Z,16.86
2018-09-13T03:53:32.987Z,16.94
2018-09-13T03:56:01.541Z,17.04
2018-09-13T03:58:30.165Z,17.10
2018-09-13T04:00:58.743Z,17.12
2018-09-13T04:03:27.443Z,17.13
2018-09-13T04:05:56.019Z,17.11
2018-09-13T04:08:24.604Z,17.18
2018-09-13T04:10:53.191Z,17.24
2018-09-13T04:13:21.772Z,17.32
2018-09-13T04:15:50.344Z,17.39
2018-09-13T04:18:18.872Z,17.41
2018-09-13T04:20:47.444Z,17.57
2018-09-13T04:23:16.007Z,17.67
2018-09-13T04:25:44.597Z,17.85
2018-09-13T04:28:13.152Z,17.93
2018-09-13T04:30:41.751Z,18.03
2018-09-13T04:33:10.304Z,18.12
2018-09-13T04:35:39.402Z,18.23
2018-09-13T04:38:08.080Z,18.20
2018-09-13T04:40:36.725Z,18.26
2018-09-13T04:43:05.389Z,18.31
2018-09-13T04:45:33.930Z,18.35
2018-09-13T04:48:02.457Z,18.45
2018-09-13T04:50:31.015Z,18.49
2018-09-13T04:52:59.547Z,18.60
2018-09-13T04:55:28.112Z,18.60
2018-09-13T04:57:56.650Z,18.67
2018-09-13T05:00:25.209Z,18.63
2018-09-13T05:02:53.758Z,18.50
2018-09-13T05:05:22.313Z,18.70
2018-09-13T05:07:50.848Z,18.80
2018-09-13T05:10:19.436Z,18.88
2018-09-13T05:12:48.279Z,18.98
2018-09-13T05:15:16.835Z,19.11
2018-09-13T05:17:45.371Z,19.14
2018-09-13T05:20:14.258Z,19.22
2018-09-13T05:22:43.814Z,19.29
2018-09-13T05:25:12.456Z,19.40
2018-09-13T05:27:41.024Z,19.49
2018-09-13T05:30:09.649Z,19.61
2018-09-13T05:32:38.279Z,19.76
2018-09-13T05:35:08.066Z,19.89
2018-09-13T05:37:36.822Z,20.09
2018-09-13T05:40:05.547Z,20.02
2018-09-13T05:42:34.111Z,20.07
2018-09-13T05:45:02.754Z,20.05
2018-09-13T05:47:31.271Z,19.87
2018-09-13T05:49:59.836Z,20.19
2018-09-13T05:52:28.347Z,20.74
2018-09-13T05:54:56.942Z,21.05
2018-09-13T05:57:25.479Z,21.28
2018-09-13T05:59:54.036Z,21.36
2018-09-13T06:02:22.596Z,21.46
2018-09-13T06:04:51.189Z,21.75
2018-09-13T06:07:19.742Z,21.82
2018-09-13T06:09:48.247Z,21.47
2018-09-13T06:12:16.796Z,21.14
2018-09-13T06:14:45.296Z,21.02
2018-09-13T06:17:13.914Z,21.07
2018-09-13T06:19:42.461Z,20.87
2018-09-13T06:22:10.999Z,20.74
2018-09-13T06:24:39.560Z,20.46
2018-09-13T06:27:08.156Z,20.03
2018-09-13T06:29:37.005Z,20.03
2018-09-13T06:32:05.603Z,20.05
2018-09-13T06:34:34.123Z,19.84
2018-09-13T06:37:02.788Z,19.84
2018-09-13T06:39:31.296Z,20.06
2018-09-13T06:41:59.847Z,19.89
2018-09-13T06:44:28.360Z,19.73
2018-09-13T06:46:56.894Z,19.90
2018-09-13T06:49:25.391Z,19.84
2018-09-13T06:51:53.956Z,19.78
2018-09-13T06:54:22.493Z,19.76
2018-09-13T06:56:51.073Z,19.84
2018-09-13T06:59:19.594Z,20.00
2018-09-13T07:01:48.408Z,20.11
2018-09-13T07:04:16.927Z,20.43
2018-09-13T07:06:45.499Z,20.72
2018-09-13T07:09:15.240Z,20.63
2018-09-13T07:11:44.668Z,20.76
2018-09-13T07:14:13.206Z,21.03
2018-09-13T07:16:41.783Z,21.38
2018-09-13T07:19:10.365Z,21.92
2018-09-13T07:21:38.920Z,22.52
2018-09-13T07:24:07.484Z,23.03
2018-09-13T07:26:36.028Z,23.13
2018-09-13T07:29:04.588Z,24.00
2018-09-13T07:31:33.168Z,24.57
2018-09-13T07:34:01.700Z,24.43
2018-09-13T07:36:30.263Z,24.83
2018-09-13T07:38:59.532Z,25.30
2018-09-13T07:41:28.102Z,24.47
2018-09-13T07:43:56.616Z,24.16
2018-09-13T07:46:25.184Z,23.92
2018-09-13T07:48:53.715Z,23.32
2018-09-13T07:51:22.283Z,22.87
2018-09-13T07:53:50.825Z,22.83
2018-09-13T07:56:19.445Z,23.01
2018-09-13T07:58:48.016Z,23.18
2018-09-13T08:01:18.246Z,23.03
2018-09-13T08:03:46.821Z,22.85
2018-09-13T08:06:15.508Z,22.93
2018-09-13T08:08:44.091Z,23.14
2018-09-13T08:11:12.624Z,22.98
2018-09-13T08:13:41.175Z,22.76
2018-09-13T08:16:09.705Z,22.96
2018-09-13T08:18:38.273Z,22.98
2018-09-13T08:21:06.828Z,22.96
2018-09-13T08:23:35.376Z,22.96
2018-09-13T08:26:03.930Z,23.34
2018-09-13T08:28:32.487Z,23.46
2018-09-13T08:31:02.052Z,23.85
2018-09-13T08:33:38.120Z,24.26
2018-09-13T08:36:06.932Z,24.65
2018-09-13T08:38:35.599Z,25.45
2018-09-13T08:41:04.966Z,26.27
2018-09-13T08:43:33.483Z,26.96
2018-09-13T08:46:02.005Z,27.18
2018-09-13T08:48:30.585Z,28.27
2018-09-13T08:50:59.088Z,28.95
2018-09-13T08:53:27.821Z,30.36
2018-09-13T08:55:56.321Z,31.01
2018-09-13T08:58:24.920Z,31.11
2018-09-13T09:00:53.443Z,31.96
2018-09-13T09:03:21.986Z,32.71
2018-09-13T09:05:50.494Z,31.98
2018-09-13T09:08:19.050Z,31.69
2018-09-13T09:10:54.628Z,31.52
2018-09-13T09:22:13.225Z,35.63
2018-09-13T09:36:44.227Z,37.99
2018-09-13T09:39:14.335Z,36.38
2018-09-13T09:41:44.214Z,34.99
2018-09-13T09:44:13.604Z,34.59
2018-09-13T09:46:42.068Z,34.99
2018-09-13T09:49:10.758Z,34.19
2018-09-13T09:51:40.241Z,33.81
2018-09-13T09:54:10.165Z,34.48
2018-09-13T09:56:38.654Z,34.05
2018-09-13T09:59:07.160Z,32.68
2018-09-13T10:01:39.962Z,31.57
2018-09-13T10:04:08.520Z,31.14
2018-09-13T10:06:36.986Z,30.21
2018-09-13T10:11:58.184Z,29.03
2018-09-13T10:14:26.669Z,28.74
2018-09-13T10:17:00.490Z,28.33
2018-09-13T10:19:34.336Z,28.16
2018-09-13T10:22:07.994Z,27.90
2018-09-13T10:24:41.824Z,27.58
2018-09-13T10:27:15.682Z,27.26
2018-09-13T10:29:49.494Z,27.08
2018-09-13T10:32:23.070Z,27.12
2018-09-13T10:34:56.753Z,26.82
2018-09-13T10:37:30.398Z,26.70
2018-09-13T10:40:04.132Z,26.42
2018-09-13T10:42:37.870Z,26.37
2018-09-13T10:45:11.676Z,26.33
2018-09-13T10:47:45.430Z,26.20
2018-09-13T10:50:19.968Z,26.14
2018-09-13T10:52:54.642Z,25.87
2018-09-13T10:55:23.268Z,25.86
2018-09-13T10:57:51.775Z,25.83
2018-09-13T11:00:20.361Z,25.76
2018-09-13T11:02:48.870Z,25.86
2018-09-13T11:05:17.476Z,25.90
2018-09-13T11:07:45.975Z,25.67
2018-09-13T11:10:14.487Z,25.66
2018-09-13T11:12:49.927Z,26.10
2018-09-13T11:15:26.578Z,26.17
2018-09-13T11:17:55.073Z,26.14
2018-09-13T11:20:23.626Z,26.65
2018-09-13T11:22:54.432Z,28.47
2018-09-13T11:25:24.183Z,29.84
2018-09-13T11:27:52.810Z,30.03
2018-09-13T11:30:21.331Z,29.77
2018-09-13T11:32:49.887Z,29.48
2018-09-13T11:35:18.415Z,29.83
2018-09-13T11:37:46.951Z,29.72
2018-09-13T11:40:16.029Z,29.97
2018-09-13T11:42:44.850Z,29.94
2018-09-13T11:45:13.466Z,29.79
2018-09-13T11:47:42.409Z,31.46
2018-09-13T11:50:10.995Z,31.97
2018-09-13T11:52:39.478Z,31.60
2018-09-13T11:55:08.027Z,31.70
2018-09-13T11:57:36.589Z,31.48
2018-09-13T12:00:05.206Z,31.68
2018-09-13T12:02:33.681Z,32.22
2018-09-13T12:05:02.461Z,32.45
2018-09-13T12:07:30.946Z,32.62
2018-09-13T12:09:59.456Z,33.69
2018-09-13T12:12:27.973Z,35.28
2018-09-13T12:14:56.502Z,35.44
2018-09-13T12:17:24.989Z,35.60
2018-09-13T12:19:53.485Z,36.33
2018-09-13T12:22:22.039Z,35.37
2018-09-13T12:24:50.530Z,33.51
2018-09-13T12:27:19.038Z,33.03
2018-09-13T12:29:47.549Z,31.90
2018-09-13T12:32:16.095Z,31.02
2018-09-13T12:34:44.613Z,31.28
2018-09-13T12:37:13.126Z,32.21
2018-09-13T12:39:41.637Z,32.55
2018-09-13T12:42:10.142Z,34.12
2018-09-13T12:44:38.634Z,34.18
2018-09-13T12:47:07.203Z,34.87
2018-09-13T12:49:35.758Z,34.75
2018-09-13T12:52:04.300Z,34.42
2018-09-13T12:54:32.825Z,34.00
2018-09-13T12:57:01.426Z,33.70
2018-09-13T12:59:35.882Z,33.73
2018-09-13T13:02:05.677Z,33.15
2018-09-13T13:04:34.197Z,32.96
2018-09-13T13:07:02.877Z,32.51
2018-09-13T13:09:31.413Z,32.39
2018-09-13T13:11:59.958Z,32.23
2018-09-13T13:14:30.201Z,32.35
2018-09-13T13:16:58.739Z,32.58
2018-09-13T13:19:30.189Z,33.16
2018-09-13T13:21:58.644Z,33.86
2018-09-13T13:24:27.209Z,33.90
2018-09-13T13:26:55.706Z,33.08
2018-09-13T13:29:24.195Z,32.80
2018-09-13T13:31:52.727Z,31.73
2018-09-13T13:34:21.221Z,30.79
2018-09-13T13:36:50.041Z,30.36
2018-09-13T13:39:18.995Z,29.63
2018-09-13T13:41:47.530Z,29.67
2018-09-13T13:44:16.002Z,29.08
2018-09-13T13:46:45.756Z,29.35
2018-09-13T13:49:14.362Z,28.94
2018-09-13T13:51:44.097Z,29.21
2018-09-13T13:54:12.629Z,29.19
2018-09-13T13:56:41.142Z,29.34
2018-09-13T13:59:09.797Z,29.27
2018-09-13T14:01:39.148Z,29.05
2018-09-13T14:04:08.739Z,29.09
2018-09-13T14:06:46.277Z,29.47
2018-09-13T14:09:24.652Z,29.83
2018-09-13T14:11:53.166Z,29.82
2018-09-13T14:14:24.007Z,29.72
2018-09-13T14:16:56.978Z,30.12
2018-09-13T14:19:25.673Z,30.26
2018-09-13T14:21:54.663Z,30.07
2018-09-13T14:24:23.336Z,29.86
2018-09-13T14:26:51.862Z,30.40
2018-09-13T14:29:20.617Z,31.79
2018-09-13T14:31:49.542Z,33.20
2018-09-13T14:34:18.017Z,33.98
2018-09-13T14:36:46.558Z,33.52
2018-09-13T14:39:15.041Z,32.59
2018-09-13T14:41:43.563Z,31.61
2018-09-13T14:44:12.045Z,31.26
2018-09-13T14:46:41.367Z,30.44
2018-09-13T14:49:09.874Z,29.77
2018-09-13T14:51:38.393Z,29.72
2018-09-13T14:54:06.902Z,29.95
2018-09-13T14:56:35.750Z,30.57
2018-09-13T14:59:04.273Z,31.28
2018-09-13T15:01:32.811Z,32.58
2018-09-13T15:04:01.347Z,33.25
2018-09-13T15:06:29.935Z,33.52
2018-09-13T15:08:58.490Z,32.67
2018-09-13T15:11:26.966Z,32.47
2018-09-13T15:13:55.497Z,32.63
2018-09-13T15:16:23.993Z,32.93
2018-09-13T15:18:52.604Z,31.57
2018-09-13T15:21:21.102Z,31.56
2018-09-13T15:23:54.533Z,31.29
2018-09-13T15:26:23.734Z,30.63
2018-09-13T15:28:52.310Z,29.65
2018-09-13T15:31:20.868Z,28.73
2018-09-13T15:33:50.349Z,28.72
2018-09-13T15:36:20.096Z,28.41
2018-09-13T15:38:48.776Z,27.76
2018-09-13T15:41:17.278Z,27.31
2018-09-13T15:43:46.126Z,27.02
2018-09-13T15:46:17.404Z,26.91
2018-09-13T15:48:45.916Z,26.70
2018-09-13T15:51:23.716Z,26.73
2018-09-13T15:53:52.337Z,26.55
2018-09-13T15:56:20.925Z,26.36
2018-09-13T15:58:50.030Z,26.33
2018-09-13T16:01:18.959Z,26.28
2018-09-13T16:06:40.650Z,26.32
2018-09-13T16:09:10.452Z,26.34
2018-09-13T16:11:41.356Z,26.20
2018-09-13T16:14:09.927Z,26.12
2018-09-13T16:16:38.544Z,26.14
2018-09-13T16:19:07.103Z,26.22
2018-09-13T16:21:35.640Z,26.23
2018-09-13T16:24:04.448Z,26.22
2018-09-13T16:26:33.135Z,26.20
2018-09-13T16:29:02.044Z,26.07
2018-09-13T16:31:30.594Z,26.09
2018-09-13T16:33:59.151Z,26.08
2018-09-13T16:36:30.032Z,26.01
2018-09-13T16:39:06.404Z,25.83
2018-09-13T16:41:41.589Z,25.73
2018-09-13T16:44:14.345Z,25.57
2018-09-13T16:46:48.510Z,25.58
2018-09-13T16:49:17.325Z,25.35
2018-09-13T16:54:39.545Z,25.09
2018-09-13T17:00:00.672Z,24.82
2018-09-13T17:02:29.166Z,24.66
2018-09-13T17:04:58.126Z,24.53
2018-09-13T17:07:27.075Z,24.43
2018-09-13T17:09:55.648Z,24.28
2018-09-13T17:12:24.222Z,24.28
2018-09-13T17:14:52.864Z,24.28
2018-09-13T17:17:21.422Z,24.15
2018-09-13T17:19:49.978Z,23.89
2018-09-13T17:28:03.742Z,23.67
2018-09-13T17:30:32.285Z,23.72
2018-09-13T17:33:00.796Z,23.72
2018-09-13T17:35:29.935Z,23.64
2018-09-13T17:37:58.518Z,23.59
2018-09-13T17:40:27.186Z,23.35
2018-09-13T17:42:55.702Z,23.22
2018-09-13T17:45:24.188Z,23.29
